sensor_id;sensor_type;location;lat;lon;timestamp;pressure;altitude;pressure_sealevel;temperature;humidity
37200;BME280;23096;50.892;16.746;2022-10-22T00:00:16;98953.08;;;13.02;74.42
37200;BME280;23096;50.892;16.746;2022-10-22T00:02:43;98946.09;;;13.04;74.39
37200;BME280;23096;50.892;16.746;2022-10-22T00:05:09;98960.55;;;13.08;74.34
37200;BME280;23096;50.892;16.746;2022-10-22T00:07:35;98962.53;;;13.12;74.25
37200;BME280;23096;50.892;16.746;2022-10-22T00:10:03;98965.05;;;13.13;74.12
37200;BME280;23096;50.892;16.746;2022-10-22T00:12:30;98968.94;;;13.13;74.03
37200;BME280;23096;50.892;16.746;2022-10-22T00:14:56;98962.86;;;13.14;73.98
37200;BME280;23096;50.892;16.746;2022-10-22T00:17:22;98967.11;;;13.15;74.01
37200;BME280;23096;50.892;16.746;2022-10-22T00:19:48;98957.75;;;13.21;74.01
37200;BME280;23096;50.892;16.746;2022-10-22T00:22:14;98954.97;;;13.26;73.89
37200;BME280;23096;50.892;16.746;2022-10-22T00:24:40;98948.36;;;13.29;73.77
37200;BME280;23096;50.892;16.746;2022-10-22T00:27:07;98940.56;;;13.31;73.74
37200;BME280;23096;50.892;16.746;2022-10-22T00:29:34;98938.34;;;13.32;73.66
37200;BME280;23096;50.892;16.746;2022-10-22T00:32:01;98937.44;;;13.33;73.53
37200;BME280;23096;50.892;16.746;2022-10-22T00:34:28;98933.16;;;13.32;73.44
37200;BME280;23096;50.892;16.746;2022-10-22T00:36:55;98933.48;;;13.34;73.46
37200;BME280;23096;50.892;16.746;2022-10-22T00:39:22;98941.16;;;13.36;73.36
37200;BME280;23096;50.892;16.746;2022-10-22T00:41:49;98936.38;;;13.37;73.40
37200;BME280;23096;50.892;16.746;2022-10-22T00:47:19;98932.11;;;13.45;73.33
37200;BME280;23096;50.892;16.746;2022-10-22T00:49:47;98925.57;;;13.46;73.24
37200;BME280;23096;50.892;16.746;2022-10-22T00:52:13;98917.81;;;13.46;73.13
37200;BME280;23096;50.892;16.746;2022-10-22T00:54:39;98916.91;;;13.47;73.08
37200;BME280;23096;50.892;16.746;2022-10-22T00:57:06;98910.87;;;13.47;72.98
37200;BME280;23096;50.892;16.746;2022-10-22T00:59:32;98907.45;;;13.46;72.96
37200;BME280;23096;50.892;16.746;2022-10-22T01:01:58;98906.38;;;13.50;73.00
37200;BME280;23096;50.892;16.746;2022-10-22T01:04:24;98914.08;;;13.52;72.91
37200;BME280;23096;50.892;16.746;2022-10-22T01:06:50;98905.41;;;13.53;72.84
37200;BME280;23096;50.892;16.746;2022-10-22T01:11:54;98906.85;;;13.50;72.71
37200;BME280;23096;50.892;16.746;2022-10-22T01:22:27;98932.67;;;13.60;72.66
37200;BME280;23096;50.892;16.746;2022-10-22T01:27:34;98929.91;;;13.63;72.53
37200;BME280;23096;50.892;16.746;2022-10-22T01:30:02;98929.48;;;13.64;72.53
37200;BME280;23096;50.892;16.746;2022-10-22T01:32:32;98918.13;;;13.66;72.58
37200;BME280;23096;50.892;16.746;2022-10-22T01:35:03;98902.38;;;13.71;72.55
37200;BME280;23096;50.892;16.746;2022-10-22T01:37:33;98904.71;;;13.75;72.40
37200;BME280;23096;50.892;16.746;2022-10-22T01:40:02;98903.88;;;13.75;72.29
37200;BME280;23096;50.892;16.746;2022-10-22T01:42:32;98903.20;;;13.71;72.21
37200;BME280;23096;50.892;16.746;2022-10-22T01:44:59;98910.14;;;13.71;72.16
37200;BME280;23096;50.892;16.746;2022-10-22T01:47:36;98904.71;;;13.67;72.05
37200;BME280;23096;50.892;16.746;2022-10-22T01:50:16;98906.54;;;13.65;72.12
37200;BME280;23096;50.892;16.746;2022-10-22T01:56:18;98904.09;;;13.70;72.12
37200;BME280;23096;50.892;16.746;2022-10-22T02:01:17;98903.73;;;13.69;72.06
37200;BME280;23096;50.892;16.746;2022-10-22T02:03:50;98903.27;;;13.70;71.99
37200;BME280;23096;50.892;16.746;2022-10-22T02:06:16;98910.21;;;13.69;71.95
37200;BME280;23096;50.892;16.746;2022-10-22T02:08:43;98901.91;;;13.71;72.04
37200;BME280;23096;50.892;16.746;2022-10-22T02:11:11;98895.65;;;13.75;72.04
37200;BME280;23096;50.892;16.746;2022-10-22T02:13:42;98896.73;;;13.80;72.02
37200;BME280;23096;50.892;16.746;2022-10-22T02:16:09;98897.16;;;13.79;71.88
37200;BME280;23096;50.892;16.746;2022-10-22T02:18:39;98907.23;;;13.77;71.80
37200;BME280;23096;50.892;16.746;2022-10-22T02:21:07;98911.94;;;13.77;71.84
37200;BME280;23096;50.892;16.746;2022-10-22T02:23:33;98903.05;;;13.74;71.78
37200;BME280;23096;50.892;16.746;2022-10-22T02:26:01;98905.18;;;13.75;71.76
37200;BME280;23096;50.892;16.746;2022-10-22T02:28:35;98916.36;;;13.75;71.78
37200;BME280;23096;50.892;16.746;2022-10-22T02:31:12;98917.66;;;13.75;71.79
37200;BME280;23096;50.892;16.746;2022-10-22T02:33:44;98918.34;;;13.79;71.86
37200;BME280;23096;50.892;16.746;2022-10-22T02:36:09;98914.39;;;13.80;71.73
37200;BME280;23096;50.892;16.746;2022-10-22T02:38:35;98908.91;;;13.78;71.66
37200;BME280;23096;50.892;16.746;2022-10-22T02:41:01;98907.16;;;13.78;71.74
37200;BME280;23096;50.892;16.746;2022-10-22T02:43:27;98900.22;;;13.79;71.71
37200;BME280;23096;50.892;16.746;2022-10-22T02:45:53;98883.02;;;13.78;71.71
37200;BME280;23096;50.892;16.746;2022-10-22T02:48:19;98891.23;;;13.77;71.70
37200;BME280;23096;50.892;16.746;2022-10-22T02:50:45;98888.02;;;13.81;71.72
37200;BME280;23096;50.892;16.746;2022-10-22T02:53:11;98891.38;;;13.83;71.68
37200;BME280;23096;50.892;16.746;2022-10-22T02:55:39;98898.53;;;13.87;71.73
37200;BME280;23096;50.892;16.746;2022-10-22T02:58:05;98894.96;;;13.89;71.72
37200;BME280;23096;50.892;16.746;2022-10-22T03:00:31;98897.41;;;13.92;71.71
37200;BME280;23096;50.892;16.746;2022-10-22T03:02:57;98899.53;;;13.93;71.61
37200;BME280;23096;50.892;16.746;2022-10-22T03:05:23;98897.02;;;13.91;71.54
37200;BME280;23096;50.892;16.746;2022-10-22T03:07:49;98901.29;;;13.92;71.64
37200;BME280;23096;50.892;16.746;2022-10-22T03:10:15;98905.92;;;13.94;71.60
37200;BME280;23096;50.892;16.746;2022-10-22T03:12:42;98905.39;;;13.96;71.64
37200;BME280;23096;50.892;16.746;2022-10-22T03:15:08;98906.36;;;14.03;71.67
37200;BME280;23096;50.892;16.746;2022-10-22T03:17:35;98913.91;;;13.98;71.34
37200;BME280;23096;50.892;16.746;2022-10-22T03:20:01;98908.20;;;13.83;71.17
37200;BME280;23096;50.892;16.746;2022-10-22T03:22:27;98910.14;;;13.71;71.09
37200;BME280;23096;50.892;16.746;2022-10-22T03:24:56;98908.98;;;13.59;71.13
37200;BME280;23096;50.892;16.746;2022-10-22T03:27:23;98908.98;;;13.59;71.42
37200;BME280;23096;50.892;16.746;2022-10-22T03:29:50;98901.36;;;13.65;71.47
37200;BME280;23096;50.892;16.746;2022-10-22T03:32:17;98909.89;;;13.67;71.47
37200;BME280;23096;50.892;16.746;2022-10-22T03:34:43;98908.59;;;13.67;71.44
37200;BME280;23096;50.892;16.746;2022-10-22T03:37:10;98923.83;;;13.55;71.07
37200;BME280;23096;50.892;16.746;2022-10-22T03:39:36;98915.38;;;13.34;70.87
37200;BME280;23096;50.892;16.746;2022-10-22T03:42:03;98924.83;;;13.16;70.77
37200;BME280;23096;50.892;16.746;2022-10-22T03:44:30;98924.63;;;13.02;70.86
37200;BME280;23096;50.892;16.746;2022-10-22T03:46:56;98924.27;;;12.91;70.81
37200;BME280;23096;50.892;16.746;2022-10-22T03:49:22;98925.93;;;12.83;71.08
37200;BME280;23096;50.892;16.746;2022-10-22T03:51:49;98916.45;;;12.83;71.20
37200;BME280;23096;50.892;16.746;2022-10-22T03:54:15;98916.78;;;12.95;71.63
37200;BME280;23096;50.892;16.746;2022-10-22T03:56:41;98915.67;;;13.09;71.71
37200;BME280;23096;50.892;16.746;2022-10-22T03:59:07;98912.48;;;13.21;71.82
37200;BME280;23096;50.892;16.746;2022-10-22T04:01:33;98912.62;;;13.37;71.99
37200;BME280;23096;50.892;16.746;2022-10-22T04:03:59;98916.06;;;13.55;72.12
37200;BME280;23096;50.892;16.746;2022-10-22T04:06:25;98910.75;;;13.67;72.02
37200;BME280;23096;50.892;16.746;2022-10-22T04:08:51;98911.04;;;13.78;72.00
37200;BME280;23096;50.892;16.746;2022-10-22T04:11:17;98909.97;;;13.83;71.92
37200;BME280;23096;50.892;16.746;2022-10-22T04:13:44;98904.85;;;13.90;71.97
37200;BME280;23096;50.892;16.746;2022-10-22T04:18:40;98887.63;;;13.97;71.83
37200;BME280;23096;50.892;16.746;2022-10-22T04:21:07;98878.55;;;13.97;71.75
37200;BME280;23096;50.892;16.746;2022-10-22T04:23:34;98866.59;;;14.04;71.92
37200;BME280;23096;50.892;16.746;2022-10-22T04:26:01;98873.28;;;14.08;71.82
37200;BME280;23096;50.892;16.746;2022-10-22T04:28:29;98877.45;;;14.10;71.71
37200;BME280;23096;50.892;16.746;2022-10-22T04:30:57;98880.98;;;14.09;71.70
37200;BME280;23096;50.892;16.746;2022-10-22T04:33:22;98883.94;;;14.10;71.66
37200;BME280;23096;50.892;16.746;2022-10-22T04:35:48;98900.02;;;14.08;71.63
37200;BME280;23096;50.892;16.746;2022-10-22T04:38:15;98918.62;;;14.08;71.66
37200;BME280;23096;50.892;16.746;2022-10-22T04:40:43;98918.55;;;14.09;71.66
37200;BME280;23096;50.892;16.746;2022-10-22T04:43:08;98918.02;;;14.03;71.60
37200;BME280;23096;50.892;16.746;2022-10-22T04:45:35;98931.50;;;14.09;71.63
37200;BME280;23096;50.892;16.746;2022-10-22T04:48:01;98937.14;;;14.09;71.64
37200;BME280;23096;50.892;16.746;2022-10-22T04:50:27;98932.72;;;14.11;71.69
37200;BME280;23096;50.892;16.746;2022-10-22T04:52:53;98927.28;;;14.15;71.76
37200;BME280;23096;50.892;16.746;2022-10-22T04:55:20;98917.99;;;14.20;71.73
37200;BME280;23096;50.892;16.746;2022-10-22T04:57:46;98918.74;;;14.22;71.67
37200;BME280;23096;50.892;16.746;2022-10-22T05:00:12;98918.28;;;14.23;71.60
37200;BME280;23096;50.892;16.746;2022-10-22T05:02:40;98919.50;;;14.24;71.65
37200;BME280;23096;50.892;16.746;2022-10-22T05:05:29;98912.48;;;14.26;71.62
37200;BME280;23096;50.892;16.746;2022-10-22T05:07:57;98912.72;;;14.30;71.62
37200;BME280;23096;50.892;16.746;2022-10-22T05:10:23;98919.95;;;14.32;71.55
37200;BME280;23096;50.892;16.746;2022-10-22T05:12:49;98923.84;;;14.32;71.54
37200;BME280;23096;50.892;16.746;2022-10-22T05:15:15;98919.02;;;14.33;71.47
37200;BME280;23096;50.892;16.746;2022-10-22T05:17:41;98913.83;;;14.33;71.51
37200;BME280;23096;50.892;16.746;2022-10-22T05:20:08;98906.88;;;14.34;71.43
37200;BME280;23096;50.892;16.746;2022-10-22T05:22:34;98904.77;;;14.33;71.41
37200;BME280;23096;50.892;16.746;2022-10-22T05:25:00;98913.47;;;14.32;71.38
37200;BME280;23096;50.892;16.746;2022-10-22T05:27:26;98927.73;;;14.32;71.34
37200;BME280;23096;50.892;16.746;2022-10-22T05:29:52;98932.44;;;14.33;71.39
37200;BME280;23096;50.892;16.746;2022-10-22T05:32:18;98943.09;;;14.35;71.47
37200;BME280;23096;50.892;16.746;2022-10-22T05:34:44;98959.64;;;14.42;71.40
37200;BME280;23096;50.892;16.746;2022-10-22T05:37:10;98969.93;;;14.43;71.41
37200;BME280;23096;50.892;16.746;2022-10-22T05:39:36;98975.40;;;14.46;71.41
37200;BME280;23096;50.892;16.746;2022-10-22T05:42:04;98985.98;;;14.50;71.43
37200;BME280;23096;50.892;16.746;2022-10-22T05:44:30;98984.06;;;14.53;71.42
37200;BME280;23096;50.892;16.746;2022-10-22T05:46:56;98980.86;;;14.57;71.42
37200;BME280;23096;50.892;16.746;2022-10-22T05:49:22;98979.05;;;14.59;71.38
37200;BME280;23096;50.892;16.746;2022-10-22T05:51:48;98988.52;;;14.60;71.35
37200;BME280;23096;50.892;16.746;2022-10-22T05:54:17;98992.77;;;14.61;71.28
37200;BME280;23096;50.892;16.746;2022-10-22T05:56:45;98976.77;;;14.62;71.27
37200;BME280;23096;50.892;16.746;2022-10-22T05:59:13;98962.52;;;14.62;71.22
37200;BME280;23096;50.892;16.746;2022-10-22T06:01:39;98962.04;;;14.62;71.25
37200;BME280;23096;50.892;16.746;2022-10-22T06:04:06;98966.32;;;14.63;71.25
37200;BME280;23096;50.892;16.746;2022-10-22T06:06:44;98969.20;;;14.66;71.23
37200;BME280;23096;50.892;16.746;2022-10-22T06:09:14;98967.36;;;14.68;71.23
37200;BME280;23096;50.892;16.746;2022-10-22T06:11:41;98966.27;;;14.72;71.22
37200;BME280;23096;50.892;16.746;2022-10-22T06:14:08;98961.47;;;14.73;71.18
37200;BME280;23096;50.892;16.746;2022-10-22T06:16:35;98957.58;;;14.73;71.15
37200;BME280;23096;50.892;16.746;2022-10-22T06:19:04;98954.09;;;14.74;71.15
37200;BME280;23096;50.892;16.746;2022-10-22T06:21:30;98946.66;;;14.75;71.12
37200;BME280;23096;50.892;16.746;2022-10-22T06:23:59;98953.53;;;14.76;71.10
37200;BME280;23096;50.892;16.746;2022-10-22T06:26:26;98949.65;;;14.76;71.12
37200;BME280;23096;50.892;16.746;2022-10-22T06:28:53;98943.99;;;14.76;71.07
37200;BME280;23096;50.892;16.746;2022-10-22T06:31:20;98958.26;;;14.76;71.03
37200;BME280;23096;50.892;16.746;2022-10-22T06:33:47;98956.96;;;14.76;71.05
37200;BME280;23096;50.892;16.746;2022-10-22T06:36:17;98968.08;;;14.79;71.10
37200;BME280;23096;50.892;16.746;2022-10-22T06:38:42;98974.02;;;14.81;71.10
37200;BME280;23096;50.892;16.746;2022-10-22T06:41:10;98967.54;;;14.81;71.04
37200;BME280;23096;50.892;16.746;2022-10-22T06:43:37;98974.23;;;14.69;70.71
37200;BME280;23096;50.892;16.746;2022-10-22T06:46:05;98977.45;;;14.48;70.48
37200;BME280;23096;50.892;16.746;2022-10-22T06:48:34;98977.25;;;14.35;70.54
37200;BME280;23096;50.892;16.746;2022-10-22T06:51:05;98979.85;;;14.26;70.53
37200;BME280;23096;50.892;16.746;2022-10-22T06:53:32;98983.92;;;14.14;70.46
37200;BME280;23096;50.892;16.746;2022-10-22T06:56:03;98980.50;;;14.05;70.55
37200;BME280;23096;50.892;16.746;2022-10-22T06:58:33;98990.54;;;14.03;70.62
37200;BME280;23096;50.892;16.746;2022-10-22T07:01:04;98990.72;;;13.99;70.59
37200;BME280;23096;50.892;16.746;2022-10-22T07:03:29;98993.13;;;13.94;70.62
37200;BME280;23096;50.892;16.746;2022-10-22T07:05:57;98992.98;;;13.88;70.61
37200;BME280;23096;50.892;16.746;2022-10-22T07:08:26;98990.84;;;13.79;70.54
37200;BME280;23096;50.892;16.746;2022-10-22T07:10:52;98998.16;;;13.71;70.67
37200;BME280;23096;50.892;16.746;2022-10-22T07:13:19;99009.48;;;13.68;70.79
37200;BME280;23096;50.892;16.746;2022-10-22T07:15:50;99020.31;;;13.68;70.87
37200;BME280;23096;50.892;16.746;2022-10-22T07:18:19;99009.55;;;13.67;70.90
37200;BME280;23096;50.892;16.746;2022-10-22T07:20:47;99016.13;;;13.65;70.98
37200;BME280;23096;50.892;16.746;2022-10-22T07:23:14;99010.16;;;13.63;71.00
37200;BME280;23096;50.892;16.746;2022-10-22T07:25:40;99000.05;;;13.58;71.04
37200;BME280;23096;50.892;16.746;2022-10-22T07:28:06;98999.22;;;13.58;71.17
37200;BME280;23096;50.892;16.746;2022-10-22T07:30:33;99007.05;;;13.56;71.22
37200;BME280;23096;50.892;16.746;2022-10-22T07:32:59;99011.36;;;13.56;71.33
37200;BME280;23096;50.892;16.746;2022-10-22T07:35:25;99011.77;;;13.57;71.41
37200;BME280;23096;50.892;16.746;2022-10-22T07:37:51;99012.98;;;13.58;71.51
37200;BME280;23096;50.892;16.746;2022-10-22T07:40:18;99027.09;;;13.61;71.53
37200;BME280;23096;50.892;16.746;2022-10-22T07:42:44;99027.59;;;13.59;71.50
37200;BME280;23096;50.892;16.746;2022-10-22T07:45:10;99027.59;;;13.59;71.69
37200;BME280;23096;50.892;16.746;2022-10-22T07:47:36;99029.91;;;13.66;71.94
37200;BME280;23096;50.892;16.746;2022-10-22T07:50:02;99022.16;;;13.74;72.04
37200;BME280;23096;50.892;16.746;2022-10-22T07:52:29;99030.01;;;13.82;72.12
37200;BME280;23096;50.892;16.746;2022-10-22T07:54:55;99025.81;;;13.88;72.17
37200;BME280;23096;50.892;16.746;2022-10-22T07:57:21;99025.60;;;13.92;72.21
37200;BME280;23096;50.892;16.746;2022-10-22T07:59:47;99022.41;;;13.96;72.28
37200;BME280;23096;50.892;16.746;2022-10-22T08:02:13;99021.01;;;13.97;72.24
37200;BME280;23096;50.892;16.746;2022-10-22T08:04:41;99023.59;;;13.97;72.29
37200;BME280;23096;50.892;16.746;2022-10-22T08:07:07;99029.86;;;14.02;72.56
37200;BME280;23096;50.892;16.746;2022-10-22T08:09:33;99024.69;;;14.11;72.64
37200;BME280;23096;50.892;16.746;2022-10-22T08:11:59;99022.17;;;14.18;72.74
37200;BME280;23096;50.892;16.746;2022-10-22T08:14:25;99026.06;;;14.27;72.82
37200;BME280;23096;50.892;16.746;2022-10-22T08:16:52;99029.16;;;14.33;72.80
37200;BME280;23096;50.892;16.746;2022-10-22T08:19:18;99031.53;;;14.38;72.80
37200;BME280;23096;50.892;16.746;2022-10-22T08:21:46;99027.92;;;14.41;72.78
37200;BME280;23096;50.892;16.746;2022-10-22T08:24:12;99035.09;;;14.44;72.78
37200;BME280;23096;50.892;16.746;2022-10-22T08:26:39;99037.22;;;14.45;72.74
37200;BME280;23096;50.892;16.746;2022-10-22T08:29:05;99046.69;;;14.46;72.72
37200;BME280;23096;50.892;16.746;2022-10-22T08:31:31;99056.15;;;14.47;72.75
37200;BME280;23096;50.892;16.746;2022-10-22T08:33:58;99060.47;;;14.46;72.74
37200;BME280;23096;50.892;16.746;2022-10-22T08:36:24;99060.47;;;14.46;72.75
37200;BME280;23096;50.892;16.746;2022-10-22T08:38:50;99058.81;;;14.45;72.77
37200;BME280;23096;50.892;16.746;2022-10-22T08:41:17;99056.58;;;14.46;72.78
37200;BME280;23096;50.892;16.746;2022-10-22T08:49:35;99051.58;;;14.43;72.84
37200;BME280;23096;50.892;16.746;2022-10-22T08:52:06;99044.31;;;14.41;72.87
37200;BME280;23096;50.892;16.746;2022-10-22T08:54:46;99048.30;;;14.40;72.93
37200;BME280;23096;50.892;16.746;2022-10-22T09:00:05;99054.31;;;14.40;73.03
37200;BME280;23096;50.892;16.746;2022-10-22T09:08:29;99050.64;;;14.44;73.14
37200;BME280;23096;50.892;16.746;2022-10-22T09:11:04;99056.15;;;14.47;73.20
37200;BME280;23096;50.892;16.746;2022-10-22T09:13:27;99052.62;;;14.48;73.25
37200;BME280;23096;50.892;16.746;2022-10-22T09:16:00;99061.55;;;14.51;73.26
37200;BME280;23096;50.892;16.746;2022-10-22T09:21:20;99068.71;;;14.54;73.36
37200;BME280;23096;50.892;16.746;2022-10-22T09:27:06;99069.79;;;14.59;73.40
37200;BME280;23096;50.892;16.746;2022-10-22T09:29:34;99063.70;;;14.60;73.37
37200;BME280;23096;50.892;16.746;2022-10-22T09:32:00;99061.03;;;14.62;73.36
37200;BME280;23096;50.892;16.746;2022-10-22T09:34:26;99061.32;;;14.64;73.41
37200;BME280;23096;50.892;16.746;2022-10-22T09:36:57;99057.64;;;14.68;73.44
37200;BME280;23096;50.892;16.746;2022-10-22T09:39:33;99061.31;;;14.73;73.41
37200;BME280;23096;50.892;16.746;2022-10-22T09:41:57;99061.99;;;14.76;73.37
37200;BME280;23096;50.892;16.746;2022-10-22T09:44:24;99059.68;;;14.79;73.35
37200;BME280;23096;50.892;16.746;2022-10-22T09:46:50;99060.47;;;14.81;73.30
37200;BME280;23096;50.892;16.746;2022-10-22T09:49:17;99062.95;;;14.83;73.24
37200;BME280;23096;50.892;16.746;2022-10-22T09:54:23;99072.42;;;14.84;73.12
37200;BME280;23096;50.892;16.746;2022-10-22T09:56:56;99071.13;;;14.84;73.07
37200;BME280;23096;50.892;16.746;2022-10-22T09:59:25;99068.06;;;14.84;73.02
37200;BME280;23096;50.892;16.746;2022-10-22T10:02:01;99072.81;;;14.85;72.98
37200;BME280;23096;50.892;16.746;2022-10-22T10:04:32;99074.01;;;14.86;72.94
37200;BME280;23096;50.892;16.746;2022-10-22T10:06:58;99071.41;;;14.86;72.88
37200;BME280;23096;50.892;16.746;2022-10-22T10:09:25;99074.01;;;14.86;72.83
37200;BME280;23096;50.892;16.746;2022-10-22T10:11:56;99063.73;;;14.85;72.83
37200;BME280;23096;50.892;16.746;2022-10-22T10:20:38;99064.16;;;14.93;72.74
37200;BME280;23096;50.892;16.746;2022-10-22T10:23:26;99062.70;;;14.96;72.72
37200;BME280;23096;50.892;16.746;2022-10-22T10:31:16;99063.13;;;15.04;72.62
37200;BME280;23096;50.892;16.746;2022-10-22T10:45:13;99060.97;;;15.12;72.45
37200;BME280;23096;50.892;16.746;2022-10-22T10:50:45;99071.02;;;15.19;72.37
37200;BME280;23096;50.892;16.746;2022-10-22T10:53:33;99072.23;;;15.20;72.32
37200;BME280;23096;50.892;16.746;2022-10-22T10:59:12;99073.92;;;15.21;72.14
37200;BME280;23096;50.892;16.746;2022-10-22T11:07:03;99083.08;;;15.20;71.95
37200;BME280;23096;50.892;16.746;2022-10-22T11:09:33;99075.30;;;15.20;71.90
37200;BME280;23096;50.892;16.746;2022-10-22T11:12:02;99075.30;;;15.20;71.88
37200;BME280;23096;50.892;16.746;2022-10-22T11:14:38;99076.41;;;15.23;71.90
37200;BME280;23096;50.892;16.746;2022-10-22T11:17:14;99071.89;;;15.26;71.84
37200;BME280;23096;50.892;16.746;2022-10-22T11:19:43;99072.20;;;15.29;71.80
37200;BME280;23096;50.892;16.746;2022-10-22T11:22:16;99068.16;;;15.32;71.78
37200;BME280;23096;50.892;16.746;2022-10-22T11:25:04;99078.35;;;15.35;71.73
37200;BME280;23096;50.892;16.746;2022-10-22T11:27:36;99074.45;;;15.35;71.66
37200;BME280;23096;50.892;16.746;2022-10-22T11:30:21;99073.08;;;15.37;71.61
37200;BME280;23096;50.892;16.746;2022-10-22T11:32:53;99079.56;;;15.37;71.56
37200;BME280;23096;50.892;16.746;2022-10-22T11:35:25;99087.83;;;15.36;71.52
37200;BME280;23096;50.892;16.746;2022-10-22T11:37:57;99083.54;;;15.35;71.44
37200;BME280;23096;50.892;16.746;2022-10-22T11:40:38;99081.88;;;15.34;71.41
37200;BME280;23096;50.892;16.746;2022-10-22T11:43:11;99071.58;;;15.32;71.37
37200;BME280;23096;50.892;16.746;2022-10-22T11:45:36;99064.16;;;15.33;71.35
37200;BME280;23096;50.892;16.746;2022-10-22T11:50:48;99076.84;;;15.31;71.23
37200;BME280;23096;50.892;16.746;2022-10-22T11:55:57;99072.41;;;15.33;71.21
37200;BME280;23096;50.892;16.746;2022-10-22T12:03:42;99070.41;;;15.38;71.20
37200;BME280;23096;50.892;16.746;2022-10-22T12:14:15;99073.23;;;15.33;71.07
37200;BME280;23096;50.892;16.746;2022-10-22T12:16:50;99073.86;;;15.30;71.11
37200;BME280;23096;50.892;16.746;2022-10-22T12:19:34;99083.20;;;15.25;71.05
37200;BME280;23096;50.892;16.746;2022-10-22T12:22:43;99079.55;;;15.21;71.09
37200;BME280;23096;50.892;16.746;2022-10-22T12:24:37;99078.33;;;15.19;71.15
37200;BME280;23096;50.892;16.746;2022-10-22T12:29:54;99068.69;;;15.14;71.21
37200;BME280;23096;50.892;16.746;2022-10-22T12:32:21;99072.58;;;15.14;71.28
37200;BME280;23096;50.892;16.746;2022-10-22T12:34:48;99067.46;;;15.12;71.29
37200;BME280;23096;50.892;16.746;2022-10-22T12:37:16;99068.45;;;15.10;71.36
37200;BME280;23096;50.892;16.746;2022-10-22T12:39:43;99066.31;;;15.09;71.42
37200;BME280;23096;50.892;16.746;2022-10-22T12:42:14;99074.41;;;15.12;71.45
37200;BME280;23096;50.892;16.746;2022-10-22T12:44:42;99067.54;;;15.11;71.47
37200;BME280;23096;50.892;16.746;2022-10-22T12:47:11;99072.34;;;15.10;71.44
37200;BME280;23096;50.892;16.746;2022-10-22T12:49:41;99070.83;;;15.06;71.41
37200;BME280;23096;50.892;16.746;2022-10-22T12:52:15;99070.36;;;15.06;71.43
37200;BME280;23096;50.892;16.746;2022-10-22T12:54:43;99066.39;;;15.08;71.46
37200;BME280;23096;50.892;16.746;2022-10-22T12:57:15;99058.25;;;15.07;71.39
37200;BME280;23096;50.892;16.746;2022-10-22T12:59:44;99062.14;;;15.07;71.40
37200;BME280;23096;50.892;16.746;2022-10-22T13:02:21;99061.83;;;15.04;71.39
37200;BME280;23096;50.892;16.746;2022-10-22T13:07:50;99078.87;;;15.01;71.32
37200;BME280;23096;50.892;16.746;2022-10-22T13:10:18;99080.87;;;14.96;71.25
37200;BME280;23096;50.892;16.746;2022-10-22T13:12:51;99081.28;;;14.88;71.19
37200;BME280;23096;50.892;16.746;2022-10-22T13:15:31;99083.27;;;14.83;71.22
37200;BME280;23096;50.892;16.746;2022-10-22T13:18:01;99078.84;;;14.76;71.18
37200;BME280;23096;50.892;16.746;2022-10-22T13:20:30;99076.11;;;14.71;71.22
37200;BME280;23096;50.892;16.746;2022-10-22T13:23:01;99078.10;;;14.66;71.21
37200;BME280;23096;50.892;16.746;2022-10-22T13:25:35;99082.75;;;14.59;71.25
37200;BME280;23096;50.892;16.746;2022-10-22T13:28:00;99080.84;;;14.54;71.28
37200;BME280;23096;50.892;16.746;2022-10-22T13:30:32;99079.02;;;14.47;71.31
37200;BME280;23096;50.892;16.746;2022-10-22T13:33:04;99076.71;;;14.41;71.38
37200;BME280;23096;50.892;16.746;2022-10-22T13:35:47;99073.90;;;14.37;71.45
37200;BME280;23096;50.892;16.746;2022-10-22T13:38:20;99086.64;;;14.33;71.53
37200;BME280;23096;50.892;16.746;2022-10-22T13:40:47;99093.19;;;14.31;71.65
37200;BME280;23096;50.892;16.746;2022-10-22T13:43:13;99096.71;;;14.30;71.72
37200;BME280;23096;50.892;16.746;2022-10-22T13:45:40;99096.71;;;14.30;71.80
37200;BME280;23096;50.892;16.746;2022-10-22T13:48:07;99101.89;;;14.30;71.88
37200;BME280;23096;50.892;16.746;2022-10-22T13:50:34;99100.67;;;14.29;71.96
37200;BME280;23096;50.892;16.746;2022-10-22T13:53:00;99096.71;;;14.30;72.07
37200;BME280;23096;50.892;16.746;2022-10-22T13:55:27;99100.59;;;14.30;72.10
37200;BME280;23096;50.892;16.746;2022-10-22T13:58:05;99102.87;;;14.28;72.16
37200;BME280;23096;50.892;16.746;2022-10-22T14:00:31;99105.86;;;14.29;72.25
37200;BME280;23096;50.892;16.746;2022-10-22T14:02:57;99094.73;;;14.27;72.29
37200;BME280;23096;50.892;16.746;2022-10-22T14:05:24;99096.85;;;14.27;72.36
37200;BME280;23096;50.892;16.746;2022-10-22T14:07:51;99094.73;;;14.27;72.40
37200;BME280;23096;50.892;16.746;2022-10-22T14:10:18;99093.04;;;14.26;72.46
37200;BME280;23096;50.892;16.746;2022-10-22T14:12:46;99095.70;;;14.24;72.52
37200;BME280;23096;50.892;16.746;2022-10-22T14:15:13;99104.01;;;14.22;72.63
37200;BME280;23096;50.892;16.746;2022-10-22T14:17:43;99109.59;;;14.23;72.69
37200;BME280;23096;50.892;16.746;2022-10-22T14:20:19;99104.01;;;14.22;72.71
37200;BME280;23096;50.892;16.746;2022-10-22T14:22:44;99108.80;;;14.21;72.80
37200;BME280;23096;50.892;16.746;2022-10-22T14:25:15;99114.91;;;14.20;72.85
37200;BME280;23096;50.892;16.746;2022-10-22T14:27:42;99121.75;;;14.21;72.93
37200;BME280;23096;50.892;16.746;2022-10-22T14:30:12;99128.16;;;14.23;72.99
37200;BME280;23096;50.892;16.746;2022-10-22T14:32:42;99125.57;;;14.23;73.06
37200;BME280;23096;50.892;16.746;2022-10-22T14:35:12;99130.75;;;14.23;73.11
37200;BME280;23096;50.892;16.746;2022-10-22T14:37:39;99134.20;;;14.23;73.16
37200;BME280;23096;50.892;16.746;2022-10-22T14:40:06;99135.03;;;14.24;73.23
37200;BME280;23096;50.892;16.746;2022-10-22T14:42:34;99130.68;;;14.24;73.29